Time;durP1;ratioP1;P1;durP2;ratioP2;P2;SDS_P1;SDS_P2;PMS_P1;PMS_P2;Temp;Humidity;BMP_temperature;BMP_pressure;BME280_temperature;BME280_humidity;BME280_pressure;Samples;Min_cycle;Max_cycle;Signal;HPM_P1;HPM_P2
2023/08/15 00:02:12;;;;;;;5.22;4.72;;;18.70;99.90;;;;;;5129029;27;20123;-76
2023/08/15 00:04:37;;;;;;;4.38;3.97;;;18.10;99.90;;;;;;5125926;27;20077;-76
2023/08/15 00:07:04;;;;;;;5.25;4.65;;;18.60;99.90;;;;;;5102990;27;20499;-77
2023/08/15 00:09:31;;;;;;;5.30;4.32;;;18.60;99.90;;;;;;5136330;27;20046;-76
2023/08/15 00:11:56;;;;;;;5.30;4.20;;;18.60;99.90;;;;;;5136858;27;20035;-75
2023/08/15 00:14:22;;;;;;;4.88;4.47;;;18.60;99.90;;;;;;5121802;27;20058;-76
2023/08/15 00:16:48;;;;;;;8.52;4.55;;;18.60;99.90;;;;;;5121737;27;20055;-76
2023/08/15 00:19:13;;;;;;;7.53;4.65;;;18.50;99.90;;;;;;5123764;27;20775;-76
2023/08/15 00:21:39;;;;;;;5.72;4.82;;;18.50;99.90;;;;;;5102203;28;20047;-76
2023/08/15 00:24:05;;;;;;;6.93;4.65;;;18.50;99.90;;;;;;5121209;27;20172;-76
2023/08/15 00:26:31;;;;;;;4.43;4.07;;;18.40;99.90;;;;;;5134253;27;20586;-76
2023/08/15 00:28:58;;;;;;;4.22;3.88;;;18.40;99.90;;;;;;5138000;27;20749;-76
2023/08/15 00:31:24;;;;;;;4.43;4.03;;;18.40;99.90;;;;;;5137859;27;20807;-76
2023/08/15 00:33:49;;;;;;;5.68;4.80;;;18.40;99.90;;;;;;5121553;27;20080;-76
2023/08/15 00:36:15;;;;;;;4.20;3.80;;;18.30;99.90;;;;;;5123321;27;20062;-76
2023/08/15 00:38:41;;;;;;;5.15;4.40;;;18.30;99.90;;;;;;5126026;27;20047;-76
2023/08/15 00:41:07;;;;;;;4.93;4.43;;;18.30;99.90;;;;;;5135641;27;20396;-76
2023/08/15 00:43:33;;;;;;;6.70;5.32;;;18.30;99.90;;;;;;5129622;27;20672;-76
2023/08/15 00:46:02;;;;;;;5.63;4.93;;;18.30;99.90;;;;;;5103302;28;20076;-76
2023/08/15 00:48:29;;;;;;;7.95;5.35;;;18.30;99.90;;;;;;5133920;27;20146;-76
2023/08/15 00:50:58;;;;;;;5.63;5.13;;;18.20;99.90;;;;;;5121858;27;20133;-76
2023/08/15 00:53:25;;;;;;;6.20;4.85;;;18.20;99.90;;;;;;5104667;27;20050;-76
2023/08/15 00:55:54;;;;;;;4.93;4.43;;;18.10;99.90;;;;;;5121442;27;20050;-76
2023/08/15 00:58:19;;;;;;;5.88;4.85;;;18.10;99.90;;;;;;5126922;27;20051;-76
2023/08/15 01:00:45;;;;;;;4.95;4.55;;;18.00;99.90;;;;;;5128205;27;20054;-76
2023/08/15 01:03:12;;;;;;;4.70;4.20;;;18.10;99.90;;;;;;5124130;27;20035;-76
2023/08/15 01:05:39;;;;;;;4.78;3.95;;;18.00;99.90;;;;;;5104248;28;20068;-76
2023/08/15 01:08:06;;;;;;;6.82;4.45;;;18.00;99.90;;;;;;5121406;27;20054;-76
2023/08/15 01:10:32;;;;;;;4.50;4.10;;;18.00;99.90;;;;;;5121424;27;20458;-76
2023/08/15 01:13:02;;;;;;;6.40;4.80;;;18.00;99.90;;;;;;5128185;27;20039;-76
2023/08/15 01:15:31;;;;;;;5.70;4.90;;;18.00;99.90;;;;;;5129433;27;20050;-76
2023/08/15 01:18:13;;;;;;;5.50;4.28;;;18.00;99.90;;;;;;5109494;27;20043;-75
2023/08/15 01:20:40;;;;;;;4.68;3.85;;;17.90;99.90;;;;;;5125959;27;20512;-75
2023/08/15 01:23:07;;;;;;;5.35;4.65;;;17.90;99.90;;;;;;5135980;27;20043;-75
2023/08/15 01:25:41;;;;;;;6.20;4.72;;;17.90;99.90;;;;;;5134481;27;20212;-75
2023/08/15 01:28:14;;;;;;;5.22;4.72;;;17.90;99.90;;;;;;5134428;27;20047;-75
2023/08/15 01:31:22;;;;;;;4.70;4.30;;;17.90;99.90;;;;;;5128059;27;20097;-75
2023/08/15 01:33:54;;;;;;;4.88;4.43;;;17.90;99.90;;;;;;5119378;27;20205;-75
2023/08/15 01:36:28;;;;;;;6.47;4.78;;;17.90;99.90;;;;;;5122166;27;20043;-76
2023/08/15 01:39:00;;;;;;;4.63;4.22;;;17.90;99.90;;;;;;5121720;27;20074;-76
2023/08/15 01:41:30;;;;;;;5.17;4.67;;;17.90;99.90;;;;;;5122282;27;20897;-76
2023/08/15 01:43:56;;;;;;;4.70;4.07;;;17.80;99.90;;;;;;5134512;27;20051;-76
2023/08/15 01:46:21;;;;;;;5.72;5.22;;;17.90;99.90;;;;;;5135909;27;20692;-76
2023/08/15 01:48:47;;;;;;;6.72;5.75;;;17.80;99.90;;;;;;5122051;27;20047;-76
2023/08/15 01:51:13;;;;;;;7.57;5.32;;;17.70;99.90;;;;;;5137424;27;20043;-75
2023/08/15 01:53:45;;;;;;;6.20;5.60;;;17.80;99.90;;;;;;5132959;27;20042;-76
2023/08/15 01:56:12;;;;;;;5.95;5.32;;;17.80;99.90;;;;;;5105672;27;20464;-77
2023/08/15 01:58:37;;;;;;;6.43;5.82;;;17.70;99.90;;;;;;5139174;27;20043;-76
2023/08/15 02:01:03;;;;;;;8.93;5.85;;;17.70;99.90;;;;;;5137406;27;20547;-76
2023/08/15 02:03:29;;;;;;;5.85;5.32;;;17.70;99.90;;;;;;5123846;27;20511;-76
2023/08/15 02:05:55;;;;;;;5.88;5.28;;;17.70;99.90;;;;;;5132758;27;20103;-75
2023/08/15 02:08:31;;;;;;;7.53;5.55;;;17.70;99.90;;;;;;5128203;27;20059;-75
2023/08/15 02:10:56;;;;;;;7.05;6.38;;;17.70;99.90;;;;;;5134200;27;20053;-76
2023/08/15 02:13:22;;;;;;;6.90;5.90;;;17.70;99.90;;;;;;5105735;27;20051;-76
2023/08/15 02:15:48;;;;;;;5.82;5.22;;;17.60;99.90;;;;;;5128718;27;20153;-76
2023/08/15 02:18:13;;;;;;;6.47;5.15;;;17.60;99.90;;;;;;5143577;27;20050;-76
2023/08/15 02:20:39;;;;;;;8.52;6.10;;;17.50;99.90;;;;;;5120878;27;20895;-76
2023/08/15 02:23:05;;;;;;;8.75;6.57;;;17.50;99.90;;;;;;5124652;27;20043;-76
2023/08/15 02:25:31;;;;;;;5.95;5.18;;;17.50;99.90;;;;;;5138297;27;20138;-76
2023/08/15 02:27:56;;;;;;;5.75;5.15;;;17.60;99.90;;;;;;5135975;27;20144;-76
2023/08/15 02:30:22;;;;;;;5.32;4.80;;;17.60;99.90;;;;;;5127635;27;20046;-76
2023/08/15 02:32:48;;;;;;;7.50;6.47;;;17.60;99.90;;;;;;5133421;27;20043;-75
2023/08/15 02:35:13;;;;;;;7.18;6.38;;;17.60;99.90;;;;;;5125645;27;20083;-75
2023/08/15 02:37:39;;;;;;;7.50;6.22;;;17.60;99.90;;;;;;5125711;27;20147;-75
2023/08/15 02:40:08;;;;;;;9.02;5.75;;;17.60;99.90;;;;;;5128316;27;20055;-76
2023/08/15 02:42:34;;;;;;;7.65;6.85;;;17.60;99.90;;;;;;5142076;27;20047;-76
2023/08/15 02:45:00;;;;;;;9.25;7.68;;;17.60;99.90;;;;;;5126905;27;20057;-76
2023/08/15 02:47:26;;;;;;;9.90;7.70;;;17.60;99.90;;;;;;5113660;27;20104;-75
2023/08/15 02:49:52;;;;;;;8.63;7.38;;;17.50;99.90;;;;;;5110387;27;20062;-75
2023/08/15 02:52:17;;;;;;;6.28;5.53;;;17.60;99.90;;;;;;5121341;27;20138;-75
2023/08/15 02:54:43;;;;;;;8.98;6.90;;;17.60;99.90;;;;;;5123189;27;20042;-76
2023/08/15 02:57:09;;;;;;;7.03;6.05;;;17.70;99.90;;;;;;5135533;27;20057;-76
2023/08/15 02:59:34;;;;;;;6.95;6.18;;;17.70;99.90;;;;;;5126718;27;20126;-75
2023/08/15 03:02:00;;;;;;;10.32;7.15;;;17.70;99.90;;;;;;5122710;27;20382;-76
2023/08/15 03:04:26;;;;;;;11.48;7.57;;;17.80;99.90;;;;;;5123768;27;20054;-75
2023/08/15 03:06:52;;;;;;;8.20;6.80;;;17.80;99.90;;;;;;5136087;27;20250;-76
2023/08/15 03:09:17;;;;;;;8.23;6.18;;;17.80;99.90;;;;;;5112469;27;20046;-75
2023/08/15 03:11:43;;;;;;;6.78;6.18;;;17.80;99.90;;;;;;5128694;27;20133;-76
2023/08/15 03:14:09;;;;;;;8.85;7.05;;;17.80;99.90;;;;;;5109967;27;20049;-75
2023/08/15 03:16:35;;;;;;;10.27;8.05;;;17.80;99.90;;;;;;5137911;27;20099;-75
2023/08/15 03:19:00;;;;;;;8.43;7.22;;;17.80;99.90;;;;;;5125113;27;20053;-75
2023/08/15 03:21:26;;;;;;;11.25;8.60;;;17.80;99.90;;;;;;5115748;27;20073;-75
2023/08/15 03:23:52;;;;;;;10.25;9.25;;;17.80;99.90;;;;;;5113201;27;20050;-75
2023/08/15 03:26:17;;;;;;;14.77;9.25;;;17.80;99.90;;;;;;5142253;27;20064;-75
2023/08/15 03:28:43;;;;;;;11.02;9.93;;;17.90;99.90;;;;;;5135703;27;20034;-75
2023/08/15 03:31:09;;;;;;;12.43;9.70;;;18.00;99.90;;;;;;5125378;27;20043;-75
2023/08/15 03:33:36;;;;;;;14.95;10.80;;;18.00;99.90;;;;;;5130424;27;20047;-75
2023/08/15 03:36:02;;;;;;;14.43;12.02;;;18.10;99.90;;;;;;5121604;27;20104;-75
2023/08/15 03:38:28;;;;;;;13.85;10.85;;;18.10;99.90;;;;;;5124584;27;20051;-75
2023/08/15 03:41:05;;;;;;;13.05;11.75;;;18.10;99.90;;;;;;5120713;27;20062;-75
2023/08/15 03:43:31;;;;;;;15.10;12.00;;;18.20;99.90;;;;;;5120816;27;20039;-75
2023/08/15 03:45:58;;;;;;;15.27;11.77;;;18.30;99.90;;;;;;5121032;27;20055;-75
2023/08/15 03:48:24;;;;;;;17.98;12.18;;;18.40;99.90;;;;;;5128039;27;20038;-76
2023/08/15 03:50:51;;;;;;;16.23;12.50;;;18.40;99.90;;;;;;5131180;27;20112;-76
2023/08/15 03:53:17;;;;;;;13.43;12.10;;;18.40;99.90;;;;;;5089000;27;20100;-75
2023/08/15 03:55:43;;;;;;;17.63;13.93;;;18.40;99.90;;;;;;5128059;27;20043;-75
2023/08/15 03:58:08;;;;;;;14.73;12.93;;;18.50;99.90;;;;;;5139877;27;20054;-75
2023/08/15 04:00:34;;;;;;;15.48;11.95;;;18.50;99.90;;;;;;5128410;27;20049;-75
2023/08/15 04:03:00;;;;;;;14.68;13.02;;;18.50;99.90;;;;;;5136060;27;20050;-75
2023/08/15 04:05:26;;;;;;;14.88;11.50;;;18.50;99.90;;;;;;5135386;27;20043;-75
2023/08/15 04:07:51;;;;;;;12.85;11.50;;;18.50;99.90;;;;;;5137853;27;20051;-75
2023/08/15 04:10:17;;;;;;;17.85;12.32;;;18.50;99.90;;;;;;5136756;27;20050;-76
2023/08/15 04:12:46;;;;;;;14.48;13.05;;;18.60;99.90;;;;;;5133825;27;20054;-76
2023/08/15 04:15:12;;;;;;;12.95;10.10;;;18.60;99.90;;;;;;5140219;27;20049;-75
2023/08/15 04:17:37;;;;;;;13.35;12.00;;;18.70;99.90;;;;;;5120181;27;20039;-75
2023/08/15 04:20:05;;;;;;;13.73;12.35;;;18.60;99.90;;;;;;5115688;27;20769;-75
2023/08/15 04:22:31;;;;;;;16.75;12.23;;;18.60;99.90;;;;;;5127170;27;20093;-75
2023/08/15 04:24:57;;;;;;;12.65;11.35;;;18.60;99.90;;;;;;5121662;27;20043;-75
2023/08/15 04:27:23;;;;;;;14.25;12.75;;;18.70;99.90;;;;;;5105610;28;20043;-75
2023/08/15 04:29:48;;;;;;;13.23;11.13;;;18.70;99.90;;;;;;5120768;27;20555;-75
2023/08/15 04:32:14;;;;;;;14.35;12.90;;;18.70;99.90;;;;;;5103019;27;20055;-76
2023/08/15 04:34:40;;;;;;;14.27;12.85;;;18.70;99.90;;;;;;5132322;27;20043;-75
2023/08/15 04:37:05;;;;;;;14.30;12.40;;;18.70;99.90;;;;;;5126673;27;20819;-75
2023/08/15 04:39:31;;;;;;;18.08;13.90;;;18.70;99.90;;;;;;5139462;27;20081;-75
2023/08/15 04:41:57;;;;;;;13.15;11.55;;;18.70;99.90;;;;;;5126518;27;20154;-74
2023/08/15 04:44:22;;;;;;;19.33;13.52;;;18.60;99.90;;;;;;5131336;27;20094;-75
2023/08/15 04:46:48;;;;;;;13.93;12.30;;;18.60;99.90;;;;;;5133650;27;20057;-75
2023/08/15 04:49:14;;;;;;;15.32;11.95;;;18.70;99.90;;;;;;5123539;27;20066;-75
2023/08/15 04:51:40;;;;;;;15.27;11.95;;;18.60;99.90;;;;;;5120849;27;20074;-75
2023/08/15 04:54:05;;;;;;;15.45;13.20;;;18.60;99.90;;;;;;5119931;27;20038;-75
2023/08/15 04:56:31;;;;;;;16.48;11.90;;;18.70;99.90;;;;;;5115439;27;20047;-76
2023/08/15 04:58:57;;;;;;;14.02;12.52;;;18.70;99.90;;;;;;5131355;27;20039;-75
2023/08/15 05:01:23;;;;;;;15.57;13.40;;;18.70;99.90;;;;;;5087821;27;20051;-76
2023/08/15 05:03:48;;;;;;;20.13;14.15;;;18.70;99.90;;;;;;5125986;27;20043;-74
2023/08/15 05:06:14;;;;;;;15.60;13.80;;;18.70;99.90;;;;;;5117852;27;20085;-76
2023/08/15 05:08:40;;;;;;;16.58;14.80;;;18.70;99.90;;;;;;5118668;27;20088;-74
2023/08/15 05:11:06;;;;;;;17.17;14.40;;;18.70;99.90;;;;;;5118560;27;20503;-74
2023/08/15 05:13:31;;;;;;;16.70;14.02;;;18.70;99.90;;;;;;5124220;27;20125;-75
2023/08/15 05:15:57;;;;;;;16.85;13.43;;;18.70;99.90;;;;;;5120195;27;20066;-74
2023/08/15 05:18:23;;;;;;;18.25;13.43;;;18.70;99.90;;;;;;5134366;27;20047;-75
2023/08/15 05:20:48;;;;;;;15.55;12.30;;;18.80;99.90;;;;;;5132399;27;20088;-75
2023/08/15 05:23:15;;;;;;;14.38;10.68;;;18.80;99.90;;;;;;5137731;27;20072;-74
2023/08/15 05:25:43;;;;;;;10.93;9.75;;;18.90;99.90;;;;;;5090188;27;20058;-75
2023/08/15 05:28:09;;;;;;;9.27;8.10;;;18.90;99.90;;;;;;5125510;27;20837;-75
2023/08/15 05:30:35;;;;;;;16.20;9.50;;;19.00;99.90;;;;;;5123103;27;20096;-75
2023/08/15 05:33:01;;;;;;;14.25;10.07;;;18.90;99.90;;;;;;5110620;27;20251;-75
2023/08/15 05:35:27;;;;;;;14.00;9.60;;;19.00;99.90;;;;;;5121366;27;20099;-76
2023/08/15 05:37:55;;;;;;;15.93;10.70;;;19.10;99.90;;;;;;5125418;27;20546;-76
2023/08/15 05:40:21;;;;;;;10.68;9.52;;;19.10;99.90;;;;;;5136736;27;20055;-76
2023/08/15 05:42:48;;;;;;;10.13;8.93;;;19.10;99.90;;;;;;5137602;27;20108;-77
2023/08/15 05:45:14;;;;;;;12.45;9.32;;;19.20;99.90;;;;;;5116984;27;20581;-79
2023/08/15 05:47:40;;;;;;;11.30;9.32;;;19.20;99.90;;;;;;5139737;27;20042;-76
2023/08/15 05:50:06;;;;;;;12.90;10.23;;;19.20;99.90;;;;;;5133674;27;20518;-76
2023/08/15 05:52:33;;;;;;;13.43;9.32;;;19.20;99.90;;;;;;5128412;27;20045;-76
2023/08/15 05:54:58;;;;;;;10.32;9.25;;;19.30;99.90;;;;;;5124397;27;20430;-78
2023/08/15 05:57:24;;;;;;;11.85;8.85;;;19.30;99.90;;;;;;5131819;27;20095;-77
2023/08/15 05:59:50;;;;;;;11.90;9.90;;;19.30;99.90;;;;;;5133540;27;20086;-76
2023/08/15 06:02:17;;;;;;;11.65;8.48;;;19.40;99.90;;;;;;5123508;27;20047;-76
2023/08/15 06:04:42;;;;;;;11.05;8.65;;;19.40;99.90;;;;;;5106811;27;20091;-76
2023/08/15 06:07:08;;;;;;;9.50;8.25;;;19.40;99.90;;;;;;5132560;27;20047;-76
2023/08/15 06:09:34;;;;;;;13.57;9.68;;;19.40;99.90;;;;;;5110968;27;21130;-77
2023/08/15 06:11:59;;;;;;;10.23;8.88;;;19.40;99.90;;;;;;5124063;27;20487;-76
2023/08/15 06:14:25;;;;;;;9.68;8.65;;;19.40;99.90;;;;;;5085061;27;20407;-77
2023/08/15 06:16:51;;;;;;;10.13;8.30;;;19.30;99.90;;;;;;5139908;27;20042;-76
2023/08/15 06:19:18;;;;;;;11.13;8.75;;;19.30;99.90;;;;;;5126386;27;20046;-76
2023/08/15 06:21:44;;;;;;;12.80;9.43;;;19.30;99.90;;;;;;5126693;27;20054;-77
2023/08/15 06:24:13;;;;;;;10.23;8.07;;;19.30;99.90;;;;;;5127263;27;20132;-77
2023/08/15 06:26:39;;;;;;;10.27;7.18;;;19.20;99.90;;;;;;5136935;27;20576;-76
2023/08/15 06:29:06;;;;;;;8.88;7.43;;;19.20;99.90;;;;;;5142410;27;20046;-76
2023/08/15 06:31:35;;;;;;;9.80;7.85;;;19.30;99.90;;;;;;5139180;27;20039;-75
2023/08/15 06:34:05;;;;;;;12.65;7.75;;;19.40;99.90;;;;;;5132890;27;20057;-75
2023/08/15 06:36:32;;;;;;;11.80;7.00;;;19.70;99.90;;;;;;5128052;27;21102;-76
2023/08/15 06:38:57;;;;;;;10.23;8.18;;;19.90;99.90;;;;;;5143177;27;20112;-76
2023/08/15 06:41:23;;;;;;;10.27;7.25;;;20.00;99.90;;;;;;5120647;27;20426;-76
2023/08/15 06:43:49;;;;;;;11.60;6.68;;;20.00;99.90;;;;;;5107344;27;20054;-76
2023/08/15 06:46:14;;;;;;;12.80;7.32;;;20.10;99.90;;;;;;5104220;27;20051;-76
2023/08/15 06:48:41;;;;;;;9.18;6.40;;;20.20;99.90;;;;;;5123433;27;20146;-76
2023/08/15 06:51:07;;;;;;;9.30;6.22;;;20.10;99.90;;;;;;5139358;27;20049;-76
2023/08/15 06:53:33;;;;;;;7.53;6.30;;;20.10;99.90;;;;;;5121093;27;20593;-76
2023/08/15 06:55:58;;;;;;;8.45;6.05;;;20.20;99.90;;;;;;5112355;27;20065;-75
2023/08/15 06:58:25;;;;;;;9.05;6.75;;;20.30;99.90;;;;;;5104791;27;20050;-74
2023/08/15 07:00:50;;;;;;;8.48;5.97;;;20.50;99.90;;;;;;5126944;27;20054;-79
2023/08/15 07:03:17;;;;;;;8.73;5.82;;;20.60;99.90;;;;;;5126473;27;20043;-75
2023/08/15 07:05:43;;;;;;;8.38;6.47;;;20.80;99.90;;;;;;5123561;27;20150;-77
2023/08/15 07:08:08;;;;;;;10.15;6.10;;;21.20;99.90;;;;;;5135898;27;20107;-75
2023/08/15 07:10:37;;;;;;;7.50;5.00;;;21.70;99.90;;;;;;5126465;27;20548;-77
2023/08/15 07:13:03;;;;;;;10.00;5.68;;;22.00;99.90;;;;;;5137185;27;20039;-79
2023/08/15 07:15:30;;;;;;;11.43;5.25;;;22.10;99.90;;;;;;5104332;27;20081;-77
2023/08/15 07:17:56;;;;;;;8.82;4.75;;;22.90;99.90;;;;;;5116564;27;20103;-74
2023/08/15 07:20:22;;;;;;;5.75;4.20;;;23.90;99.90;;;;;;5116563;27;20055;-75
2023/08/15 07:22:47;;;;;;;6.65;4.10;;;25.20;99.90;;;;;;5123400;27;20124;-76
2023/08/15 07:25:13;;;;;;;7.63;3.70;;;26.20;99.90;;;;;;5135658;27;20154;-76
2023/08/15 07:27:39;;;;;;;9.48;4.30;;;27.00;99.90;;;;;;5135020;27;20082;-78
2023/08/15 07:30:06;;;;;;;6.00;3.63;;;27.60;99.90;;;;;;5122803;27;20039;-75
2023/08/15 07:32:35;;;;;;;6.18;3.15;;;28.20;99.90;;;;;;5135084;27;20354;-75
2023/08/15 07:35:04;;;;;;;5.03;3.65;;;28.60;99.90;;;;;;5123387;27;20051;-75
2023/08/15 07:37:30;;;;;;;6.72;3.65;;;29.00;99.90;;;;;;5109382;27;20119;-76
2023/08/15 07:40:07;;;;;;;5.38;3.42;;;29.30;99.90;;;;;;5105021;27;20062;-76
2023/08/15 07:42:33;;;;;;;6.88;3.15;;;29.70;99.90;;;;;;5138605;27;20536;-75
2023/08/15 07:44:59;;;;;;;6.75;3.28;;;29.50;99.90;;;;;;5098358;27;20039;-75
2023/08/15 07:47:25;;;;;;;9.18;3.38;;;29.90;99.90;;;;;;5131635;27;20043;-77
2023/08/15 07:50:14;;;;;;;5.68;3.00;;;29.80;99.90;;;;;;5115323;27;20458;-76
2023/08/15 07:52:41;;;;;;;6.65;2.90;;;29.50;96.10;;;;;;5094237;27;20085;-75
2023/08/15 07:55:07;;;;;;;10.57;3.05;;;28.60;99.20;;;;;;5129664;27;20465;-76
2023/08/15 07:57:33;;;;;;;4.93;2.97;;;28.20;99.90;;;;;;5131572;27;20912;-75
2023/08/15 07:59:59;;;;;;;5.25;2.92;;;28.60;99.90;;;;;;5142089;27;20050;-76
2023/08/15 08:02:24;;;;;;;7.68;4.25;;;28.60;98.10;;;;;;5123178;27;20089;-77
2023/08/15 08:04:50;;;;;;;5.78;2.85;;;28.80;99.10;;;;;;5120628;27;20062;-74
2023/08/15 08:07:16;;;;;;;5.82;2.70;;;29.10;99.00;;;;;;5116830;27;20050;-74
2023/08/15 08:09:42;;;;;;;5.78;2.22;;;29.00;99.00;;;;;;5141591;27;20174;-75
2023/08/15 08:12:08;;;;;;;3.35;2.13;;;28.60;99.30;;;;;;5127587;27;20075;-76
2023/08/15 08:14:34;;;;;;;8.90;3.15;;;27.70;99.40;;;;;;5111510;27;20715;-74
2023/08/15 08:17:00;;;;;;;6.50;3.70;;;27.00;99.80;;;;;;5138984;27;20043;-75
2023/08/15 08:19:25;;;;;;;5.28;2.97;;;26.10;99.90;;;;;;5129930;27;20472;-76
2023/08/15 08:21:51;;;;;;;7.65;3.83;;;25.60;99.90;;;;;;5130593;27;20638;-75
2023/08/15 08:24:17;;;;;;;4.05;2.97;;;25.50;99.90;;;;;;5142738;27;20054;-76
2023/08/15 08:26:43;;;;;;;5.75;2.83;;;25.60;99.90;;;;;;5103723;27;20050;-77
2023/08/15 08:29:10;;;;;;;6.55;2.50;;;26.50;99.90;;;;;;5139687;27;20538;-76
2023/08/15 08:31:39;;;;;;;3.92;2.33;;;27.60;99.90;;;;;;5106854;27;20043;-74
2023/08/15 08:34:13;;;;;;;5.65;2.40;;;28.30;99.40;;;;;;5133737;27;20053;-76
2023/08/15 08:36:42;;;;;;;6.00;2.20;;;28.80;98.00;;;;;;5134754;27;20061;-76
2023/08/15 08:39:08;;;;;;;3.80;2.00;;;28.50;97.00;;;;;;5134606;27;20058;-76
2023/08/15 08:41:35;;;;;;;6.68;2.60;;;27.60;98.60;;;;;;5124208;27;20826;-76
2023/08/15 08:44:02;;;;;;;6.15;2.33;;;26.90;98.90;;;;;;5123607;27;20115;-76
2023/08/15 08:46:28;;;;;;;5.22;2.75;;;26.60;99.30;;;;;;5123839;27;20349;-75
2023/08/15 08:48:56;;;;;;;7.70;2.17;;;26.30;99.70;;;;;;5137847;27;20082;-76
2023/08/15 08:51:23;;;;;;;5.30;2.53;;;26.50;99.40;;;;;;5123474;27;20058;-77
2023/08/15 08:53:49;;;;;;;4.53;2.28;;;26.40;99.60;;;;;;5131031;27;20433;-78
2023/08/15 08:56:18;;;;;;;3.53;1.90;;;26.00;99.60;;;;;;5132692;27;20484;-79
2023/08/15 08:59:01;;;;;;;6.43;2.70;;;26.00;99.90;;;;;;5136398;27;20043;-75
2023/08/15 09:01:30;;;;;;;6.32;3.08;;;26.50;99.70;;;;;;5127219;27;20047;-75
2023/08/15 09:03:58;;;;;;;7.32;2.75;;;27.30;99.80;;;;;;5133429;27;20051;-76
2023/08/15 09:06:27;;;;;;;3.55;2.05;;;27.90;98.10;;;;;;5140701;27;20817;-76
2023/08/15 09:08:53;;;;;;;5.22;1.98;;;28.50;98.30;;;;;;5126189;27;20830;-76
2023/08/15 09:11:20;;;;;;;6.22;2.10;;;29.10;98.20;;;;;;5109626;27;20062;-76
2023/08/15 09:13:47;;;;;;;3.33;1.60;;;29.60;97.80;;;;;;5129993;27;20128;-75
2023/08/15 09:16:13;;;;;;;5.10;2.08;;;29.50;96.90;;;;;;5115022;27;20054;-75
2023/08/15 09:18:38;;;;;;;6.50;1.80;;;29.80;97.20;;;;;;5122741;27;20111;-75
2023/08/15 09:21:07;;;;;;;5.45;1.88;;;30.20;97.10;;;;;;5114744;27;20098;-76
2023/08/15 09:23:33;;;;;;;2.80;2.17;;;29.90;96.20;;;;;;5139650;27;20738;-74
2023/08/15 09:26:14;;;;;;;4.07;1.70;;;29.80;96.60;;;;;;5144552;27;20053;-78
2023/08/15 09:28:44;;;;;;;4.88;1.85;;;29.10;94.70;;;;;;5130729;27;20049;-75
2023/08/15 09:31:11;;;;;;;5.15;2.00;;;28.30;96.50;;;;;;5110260;27;20083;-76
2023/08/15 09:33:41;;;;;;;4.47;2.13;;;28.40;96.40;;;;;;5131258;27;20042;-75
2023/08/15 09:36:10;;;;;;;3.90;1.92;;;28.20;96.30;;;;;;5116121;27;20059;-74
2023/08/15 09:38:37;;;;;;;2.08;1.50;;;28.00;96.60;;;;;;5133548;27;20035;-75
2023/08/15 09:41:03;;;;;;;2.20;1.50;;;28.30;96.30;;;;;;5126551;27;20063;-76
2023/08/15 09:43:32;;;;;;;2.65;2.13;;;29.00;96.50;;;;;;5105538;27;20043;-75
2023/08/15 09:45:59;;;;;;;1.95;1.10;;;29.60;95.50;;;;;;5136240;27;20043;-75
2023/08/15 09:48:28;;;;;;;2.92;1.42;;;29.90;95.00;;;;;;5134962;27;20050;-76
2023/08/15 09:50:55;;;;;;;3.78;1.85;;;30.30;95.20;;;;;;5139642;27;20051;-75
2023/08/15 09:53:25;;;;;;;2.20;1.58;;;30.60;95.10;;;;;;5127457;27;20502;-75
2023/08/15 09:55:51;;;;;;;1.58;1.20;;;30.60;94.60;;;;;;5127341;27;20050;-75
2023/08/15 09:58:18;;;;;;;3.42;1.90;;;29.90;94.60;;;;;;5126719;27;20051;-75
2023/08/15 10:00:49;;;;;;;2.83;1.27;;;29.60;94.80;;;;;;5131736;27;20050;-75
2023/08/15 10:03:40;;;;;;;2.33;1.30;;;29.50;94.80;;;;;;5136739;27;20039;-76
2023/08/15 10:06:08;;;;;;;6.07;1.65;;;29.50;93.90;;;;;;5123932;27;20055;-76
2023/08/15 10:08:37;;;;;;;1.67;1.10;;;29.40;94.70;;;;;;5132429;27;20090;-76
2023/08/15 10:11:06;;;;;;;1.92;1.30;;;29.20;94.10;;;;;;5131099;27;20047;-76
2023/08/15 10:13:34;;;;;;;4.38;1.65;;;29.30;94.60;;;;;;5128769;27;20047;-76
2023/08/15 10:16:01;;;;;;;3.90;1.48;;;29.90;93.60;;;;;;5134905;27;20559;-74
2023/08/15 10:18:28;;;;;;;3.63;1.23;;;30.30;94.70;;;;;;5127870;27;20043;-75
2023/08/15 10:20:56;;;;;;;3.08;1.40;;;30.50;94.40;;;;;;5124744;27;20768;-75
2023/08/15 10:23:33;;;;;;;1.83;0.88;;;30.00;93.60;;;;;;5142660;27;20126;-75
2023/08/15 10:26:01;;;;;;;2.58;1.50;;;30.00;93.00;;;;;;5135818;27;20115;-76
2023/08/15 10:28:33;;;;;;;2.25;1.27;;;30.20;93.60;;;;;;5139348;27;20043;-75
2023/08/15 10:30:59;;;;;;;2.60;1.48;;;30.00;93.30;;;;;;5136240;27;20183;-76
2023/08/15 10:33:29;;;;;;;3.10;1.33;;;30.30;93.70;;;;;;5143171;27;20046;-76
2023/08/15 10:35:54;;;;;;;1.83;1.30;;;29.90;92.50;;;;;;5125091;27;20588;-77
2023/08/15 10:38:30;;;;;;;1.35;1.25;;;29.50;93.60;;;;;;5136446;27;20043;-78
2023/08/15 10:41:10;;;;;;;2.05;1.25;;;30.00;93.20;;;;;;5136361;27;20134;-76
2023/08/15 10:43:37;;;;;;;1.77;1.05;;;30.40;93.40;;;;;;5135924;27;20562;-77
2023/08/15 10:46:06;;;;;;;5.28;1.67;;;30.50;93.30;;;;;;5133232;27;20046;-78
2023/08/15 10:48:55;;;;;;;1.23;1.13;;;30.40;93.30;;;;;;5115410;27;20057;-77
2023/08/15 10:51:29;;;;;;;2.63;1.40;;;30.10;92.50;;;;;;5146077;27;20180;-76
2023/08/15 10:53:58;;;;;;;2.88;1.00;;;29.80;92.40;;;;;;5133685;27;20058;-77
2023/08/15 10:56:27;;;;;;;3.85;1.83;;;29.80;93.20;;;;;;5126702;27;20062;-76
2023/08/15 10:58:54;;;;;;;2.88;1.40;;;30.00;93.20;;;;;;5126368;27;20051;-77
2023/08/15 11:01:25;;;;;;;4.78;1.88;;;29.70;93.20;;;;;;5131420;27;20046;-76
2023/08/15 11:03:53;;;;;;;4.47;1.50;;;29.40;93.70;;;;;;5139502;27;20059;-78
2023/08/15 11:06:19;;;;;;;2.97;1.42;;;29.00;93.20;;;;;;5130607;27;20772;-77
2023/08/15 11:08:54;;;;;;;2.58;1.50;;;28.70;93.80;;;;;;5140618;27;20042;-77
2023/08/15 11:11:20;;;;;;;3.55;1.70;;;28.60;93.70;;;;;;5123608;27;20048;-76
2023/08/15 11:13:48;;;;;;;4.05;1.58;;;28.50;93.70;;;;;;5134743;27;20053;-76
2023/08/15 11:16:16;;;;;;;3.22;1.50;;;28.60;94.00;;;;;;5139942;27;20057;-76
2023/08/15 11:18:42;;;;;;;3.92;2.00;;;28.90;94.50;;;;;;5105632;27;20051;-76
2023/08/15 11:21:13;;;;;;;3.75;1.60;;;28.90;94.40;;;;;;5127802;27;20056;-77
2023/08/15 11:23:40;;;;;;;3.40;1.88;;;28.70;94.00;;;;;;5122244;27;20149;-77
2023/08/15 11:26:08;;;;;;;4.82;2.38;;;28.50;94.20;;;;;;5135280;27;20041;-77
2023/08/15 11:28:34;;;;;;;4.93;1.63;;;28.20;94.50;;;;;;5131766;27;20125;-77
2023/08/15 11:31:06;;;;;;;4.22;2.00;;;28.30;94.60;;;;;;5132302;27;20102;-76
2023/08/15 11:33:32;;;;;;;4.40;2.13;;;28.30;94.60;;;;;;5128482;27;20031;-77
2023/08/15 11:36:06;;;;;;;4.93;2.20;;;28.30;94.50;;;;;;5126154;27;20065;-77
2023/08/15 11:38:33;;;;;;;3.10;2.40;;;28.20;95.60;;;;;;5123364;27;20051;-77
2023/08/15 11:41:01;;;;;;;2.97;2.42;;;28.00;95.20;;;;;;5126216;27;20765;-77
2023/08/15 11:43:28;;;;;;;6.20;2.85;;;28.10;95.40;;;;;;5127525;27;20046;-76
2023/08/15 11:45:54;;;;;;;4.07;2.30;;;28.20;95.40;;;;;;5122165;27;20086;-76
2023/08/15 11:48:19;;;;;;;7.38;2.33;;;28.10;95.40;;;;;;5130559;27;20542;-78
2023/08/15 11:50:46;;;;;;;3.17;2.33;;;27.80;95.00;;;;;;5136756;27;20086;-77
2023/08/15 11:53:15;;;;;;;4.18;2.13;;;27.70;95.20;;;;;;5122281;27;20043;-77
2023/08/15 11:55:41;;;;;;;2.65;2.20;;;27.50;95.70;;;;;;5122471;27;20047;-77
2023/08/15 11:58:27;;;;;;;5.22;2.55;;;27.40;95.80;;;;;;5104343;27;20051;-77
2023/08/15 12:01:11;;;;;;;6.53;2.40;;;27.30;96.60;;;;;;5130150;27;20065;-77
2023/08/15 12:03:38;;;;;;;4.15;2.38;;;27.00;95.80;;;;;;5135559;27;20047;-76
2023/08/15 12:06:12;;;;;;;3.90;2.30;;;26.70;96.70;;;;;;5103674;27;20134;-76
2023/08/15 12:08:41;;;;;;;4.53;2.88;;;26.70;96.90;;;;;;5122807;27;20051;-76
2023/08/15 12:11:08;;;;;;;3.05;2.38;;;26.80;97.20;;;;;;5125658;27;20051;-77
2023/08/15 12:13:41;;;;;;;5.30;2.55;;;26.70;96.70;;;;;;5132524;27;20051;-78
2023/08/15 12:16:07;;;;;;;;;;;26.60;96.80;;;;;;5122869;27;20111;-76
2023/08/15 12:18:34;;;;;;;7.30;2.90;;;26.70;97.70;;;;;;5121508;27;19935;-76
2023/08/15 12:21:01;;;;;;;9.57;3.85;;;26.70;96.90;;;;;;5129292;27;20046;-77
2023/08/15 12:23:27;;;;;;;9.50;3.22;;;27.00;96.90;;;;;;5127639;27;20086;-76
2023/08/15 12:25:52;;;;;;;9.05;2.67;;;27.10;97.20;;;;;;5127265;27;20129;-76
2023/08/15 12:28:18;;;;;;;3.33;1.85;;;27.10;96.30;;;;;;5129797;27;20086;-79
2023/08/15 12:30:47;;;;;;;3.63;1.80;;;27.30;96.60;;;;;;5135253;27;20066;-77
2023/08/15 12:33:13;;;;;;;3.40;1.80;;;27.30;96.50;;;;;;5103657;27;20812;-76
2023/08/15 12:35:39;;;;;;;3.40;1.63;;;27.20;96.20;;;;;;5124081;27;20051;-76
2023/08/15 12:38:05;;;;;;;2.35;1.50;;;27.20;96.40;;;;;;5123538;27;20130;-77
2023/08/15 12:40:31;;;;;;;5.50;2.03;;;27.10;96.50;;;;;;5134055;27;20444;-76
2023/08/15 12:42:58;;;;;;;3.08;1.90;;;27.10;96.50;;;;;;5121698;27;20048;-75
2023/08/15 12:45:24;;;;;;;2.75;1.70;;;27.00;96.40;;;;;;5139565;27;20134;-77